Time;durP1;ratioP1;P1;durP2;ratioP2;P2;SDS_P1;SDS_P2;PMS_P1;PMS_P2;Temp;Humidity;BMP_temperature;BMP_pressure;BME280_temperature;BME280_humidity;BME280_pressure;Samples;Min_cycle;Max_cycle;Signal;HPM_P1;HPM_P2
2023/01/26 00:01:47;;;;;;;437.67;213.40;;;;;;;;;;4939230;28;20534;-53
2023/01/26 00:04:13;;;;;;;418.77;197.87;;;;;;;;;;4930962;28;20268;-53
2023/01/26 00:06:40;;;;;;;479.87;235.53;;;;;;;;;;4908911;28;20668;-53
2023/01/26 00:09:06;;;;;;;433.60;206.80;;;;;;;;;;4901039;28;20260;-52
2023/01/26 00:11:32;;;;;;;469.73;229.03;;;;;;;;;;4900361;28;20196;-53
2023/01/26 00:14:00;;;;;;;455.37;230.20;;;;;;;;;;4918364;28;20228;-52
2023/01/26 00:16:27;;;;;;;480.50;234.07;;;;;;;;;;4907596;28;20224;-54
2023/01/26 00:18:53;;;;;;;454.43;216.67;;;;;;;;;;4899979;28;20263;-53
2023/01/26 00:21:21;;;;;;;392.67;185.57;;;;;;;;;;4904701;28;20207;-53
2023/01/26 00:23:48;;;;;;;454.27;217.90;;;;;;;;;;4913043;28;20323;-53
2023/01/26 00:26:15;;;;;;;462.00;225.40;;;;;;;;;;4897414;28;20220;-52
2023/01/26 00:28:42;;;;;;;450.93;218.60;;;;;;;;;;4895703;28;20225;-52
2023/01/26 00:31:11;;;;;;;462.83;221.23;;;;;;;;;;4901021;28;20303;-52
2023/01/26 00:33:38;;;;;;;450.93;220.93;;;;;;;;;;4891005;28;20228;-52
2023/01/26 00:36:04;;;;;;;454.80;219.00;;;;;;;;;;4885169;28;20220;-52
2023/01/26 00:38:30;;;;;;;440.93;210.03;;;;;;;;;;4888350;28;20204;-53
2023/01/26 00:40:57;;;;;;;454.73;222.60;;;;;;;;;;4909355;28;20641;-53
2023/01/26 00:43:23;;;;;;;457.50;226.50;;;;;;;;;;4892150;28;20301;-53
2023/01/26 00:45:49;;;;;;;469.23;229.17;;;;;;;;;;4895417;28;20235;-52
2023/01/26 00:48:18;;;;;;;469.03;234.33;;;;;;;;;;4888572;28;20732;-52
2023/01/26 00:50:45;;;;;;;426.80;207.73;;;;;;;;;;4888383;28;20600;-53
2023/01/26 00:53:11;;;;;;;415.50;198.30;;;;;;;;;;4930236;28;20239;-53
2023/01/26 00:55:40;;;;;;;454.13;227.27;;;;;;;;;;4932116;28;20220;-53
2023/01/26 00:58:06;;;;;;;455.20;220.47;;;;;;;;;;4953779;22;20227;-46
2023/01/26 01:00:33;;;;;;;433.60;214.33;;;;;;;;;;4920769;28;20263;-44
2023/01/26 01:03:00;;;;;;;509.30;251.83;;;;;;;;;;4919884;28;20219;-47
2023/01/26 01:05:27;;;;;;;464.60;234.63;;;;;;;;;;4904453;29;20350;-45
2023/01/26 01:07:53;;;;;;;476.20;244.57;;;;;;;;;;4900133;29;20208;-45
2023/01/26 01:10:19;;;;;;;481.07;246.13;;;;;;;;;;4891224;28;20295;-45
2023/01/26 01:12:45;;;;;;;509.37;261.00;;;;;;;;;;4899009;28;20243;-45
2023/01/26 01:15:11;;;;;;;459.53;227.60;;;;;;;;;;4901314;28;20286;-45
2023/01/26 01:17:37;;;;;;;512.97;248.33;;;;;;;;;;4901430;29;20203;-45
2023/01/26 01:20:04;;;;;;;457.93;231.27;;;;;;;;;;4902239;29;20255;-45
2023/01/26 01:22:31;;;;;;;512.30;259.00;;;;;;;;;;4910622;28;20220;-45
2023/01/26 01:24:57;;;;;;;459.33;231.87;;;;;;;;;;4895146;29;20229;-45
2023/01/26 01:27:23;;;;;;;493.77;249.97;;;;;;;;;;4882134;28;20239;-45
2023/01/26 01:29:49;;;;;;;464.97;233.67;;;;;;;;;;4881727;28;20316;-45
2023/01/26 01:32:16;;;;;;;438.53;223.37;;;;;;;;;;4884662;29;20306;-45
2023/01/26 01:34:42;;;;;;;445.97;223.93;;;;;;;;;;4899270;28;20232;-45
2023/01/26 01:37:08;;;;;;;446.30;224.93;;;;;;;;;;4900869;28;20220;-45
2023/01/26 01:39:34;;;;;;;501.57;248.33;;;;;;;;;;4915520;28;20296;-45
2023/01/26 01:42:00;;;;;;;470.77;237.67;;;;;;;;;;4999219;28;20312;-45
2023/01/26 01:44:26;;;;;;;511.53;261.30;;;;;;;;;;4998314;28;20302;-45
2023/01/26 01:47:03;;;;;;;432.33;218.97;;;;;;;;;;4999280;28;20236;-45
2023/01/26 01:49:40;;;;;;;495.67;253.63;;;;;;;;;;4999368;28;20287;-45
2023/01/26 01:52:09;;;;;;;502.97;253.60;;;;;;;;;;4999356;28;20692;-45
2023/01/26 01:54:38;;;;;;;492.57;258.50;;;;;;;;;;4976622;28;20212;-45
2023/01/26 01:57:14;;;;;;;458.37;231.27;;;;;;;;;;4901849;29;20220;-45
2023/01/26 01:59:42;;;;;;;456.57;242.47;;;;;;;;;;4898150;28;20227;-45
2023/01/26 02:02:09;;;;;;;440.67;225.87;;;;;;;;;;4898639;29;20688;-45
2023/01/26 02:04:35;;;;;;;467.90;249.70;;;;;;;;;;4881649;28;20221;-45
2023/01/26 02:07:01;;;;;;;452.97;232.27;;;;;;;;;;4888273;28;20643;-45
2023/01/26 02:12:22;;;;;;;419.07;220.33;;;;;;;;;;4901473;29;20230;-45
2023/01/26 02:14:49;;;;;;;402.73;212.03;;;;;;;;;;4900146;29;20224;-45
2023/01/26 02:17:15;;;;;;;492.80;262.53;;;;;;;;;;4899944;29;20195;-45
2023/01/26 02:19:50;;;;;;;445.40;237.50;;;;;;;;;;4900304;29;20228;-45
2023/01/26 02:22:22;;;;;;;483.77;244.40;;;;;;;;;;4900501;29;20656;-45
2023/01/26 02:24:49;;;;;;;481.43;246.80;;;;;;;;;;4900420;29;20230;-45
2023/01/26 02:27:15;;;;;;;473.10;245.87;;;;;;;;;;4961722;28;20683;-44
2023/01/26 02:29:41;;;;;;;435.37;226.33;;;;;;;;;;5000020;28;20266;-45
2023/01/26 02:32:07;;;;;;;462.57;240.57;;;;;;;;;;4977100;28;20279;-45
2023/01/26 02:34:33;;;;;;;444.07;223.50;;;;;;;;;;4901467;28;20686;-45
2023/01/26 02:37:00;;;;;;;480.53;253.97;;;;;;;;;;4900033;29;20230;-45
2023/01/26 02:39:26;;;;;;;476.00;243.80;;;;;;;;;;4897824;29;20243;-45
2023/01/26 02:44:39;;;;;;;444.33;229.50;;;;;;;;;;4889369;28;20199;-45
2023/01/26 02:47:12;;;;;;;458.03;239.43;;;;;;;;;;4901705;28;20625;-45
2023/01/26 02:49:47;;;;;;;441.13;234.47;;;;;;;;;;4886676;28;20228;-45
2023/01/26 02:52:16;;;;;;;450.23;228.97;;;;;;;;;;4900928;28;20212;-45
2023/01/26 02:57:27;;;;;;;483.80;243.10;;;;;;;;;;4900638;28;20303;-45
2023/01/26 02:59:53;;;;;;;453.23;223.70;;;;;;;;;;4900028;29;20228;-45
2023/01/26 03:02:20;;;;;;;453.13;242.50;;;;;;;;;;4900963;29;20387;-45
2023/01/26 03:04:46;;;;;;;436.23;232.40;;;;;;;;;;4899638;29;20216;-45
2023/01/26 03:07:13;;;;;;;438.40;230.07;;;;;;;;;;4899021;28;20710;-45
2023/01/26 03:09:39;;;;;;;438.47;225.63;;;;;;;;;;4881372;28;20572;-45
2023/01/26 03:12:06;;;;;;;462.20;244.20;;;;;;;;;;4893136;28;20232;-45
2023/01/26 03:14:32;;;;;;;492.17;254.97;;;;;;;;;;4923251;28;20806;-45
2023/01/26 03:16:58;;;;;;;442.73;216.77;;;;;;;;;;4903030;28;20210;-45
2023/01/26 03:27:41;;;;;;;497.43;258.83;;;;;;;;;;4903675;29;20610;-45
2023/01/26 03:30:08;;;;;;;447.17;229.50;;;;;;;;;;4902832;29;20271;-45
2023/01/26 03:32:34;;;;;;;459.00;236.20;;;;;;;;;;4903194;28;20492;-45
2023/01/26 03:35:00;;;;;;;517.77;268.97;;;;;;;;;;4903033;28;20327;-45
2023/01/26 03:37:26;;;;;;;467.60;248.20;;;;;;;;;;4898764;28;20282;-45
2023/01/26 03:56:26;;;;;;;465.60;248.33;;;;;;;;;;4890607;29;20224;-45
2023/01/26 03:58:53;;;;;;;433.00;225.93;;;;;;;;;;4883250;29;20221;-45
2023/01/26 04:01:25;;;;;;;446.33;230.07;;;;;;;;;;4884423;28;20507;-45
2023/01/26 04:09:22;;;;;;;474.47;244.33;;;;;;;;;;4902026;28;20570;-45
2023/01/26 04:11:48;;;;;;;470.67;242.37;;;;;;;;;;4902637;28;20232;-45
2023/01/26 04:22:30;;;;;;;425.57;219.13;;;;;;;;;;4902889;28;20243;-45
2023/01/26 04:24:57;;;;;;;464.50;239.30;;;;;;;;;;4900552;28;20314;-45
2023/01/26 04:27:23;;;;;;;466.40;238.97;;;;;;;;;;4901669;29;20232;-45
2023/01/26 04:29:49;;;;;;;409.70;208.37;;;;;;;;;;4901988;28;20583;-45
2023/01/26 04:32:16;;;;;;;492.43;255.17;;;;;;;;;;4893466;29;20211;-45
2023/01/26 04:34:42;;;;;;;449.57;218.90;;;;;;;;;;4902465;28;20836;-45
2023/01/26 04:37:09;;;;;;;486.27;248.17;;;;;;;;;;4902335;28;20220;-45
2023/01/26 04:39:35;;;;;;;471.67;249.53;;;;;;;;;;4902490;28;20229;-45
2023/01/26 04:42:01;;;;;;;469.93;242.73;;;;;;;;;;4902818;28;20244;-45
2023/01/26 04:44:27;;;;;;;439.33;222.63;;;;;;;;;;4902443;28;20564;-45
2023/01/26 04:46:53;;;;;;;460.47;237.90;;;;;;;;;;4888047;28;20315;-45
2023/01/26 04:49:20;;;;;;;483.70;245.23;;;;;;;;;;4882617;28;20311;-45
2023/01/26 04:51:46;;;;;;;454.10;232.00;;;;;;;;;;4889062;28;20287;-45
2023/01/26 04:54:12;;;;;;;497.53;258.30;;;;;;;;;;4900734;28;20274;-45
2023/01/26 04:56:38;;;;;;;429.47;217.70;;;;;;;;;;4902496;29;20311;-44
2023/01/26 04:59:06;;;;;;;441.67;225.77;;;;;;;;;;4902407;29;20219;-44
2023/01/26 05:01:32;;;;;;;393.93;206.33;;;;;;;;;;4902385;29;20307;-45
2023/01/26 05:03:59;;;;;;;479.40;256.73;;;;;;;;;;4901932;29;20224;-45
2023/01/26 05:06:26;;;;;;;481.53;248.67;;;;;;;;;;4900355;28;20301;-45
2023/01/26 05:08:52;;;;;;;480.87;241.03;;;;;;;;;;4901342;28;20303;-45
2023/01/26 05:11:18;;;;;;;478.90;241.57;;;;;;;;;;4895723;29;20187;-45
2023/01/26 05:13:46;;;;;;;431.93;226.83;;;;;;;;;;4902360;29;20228;-45
2023/01/26 05:16:13;;;;;;;464.97;246.93;;;;;;;;;;4902156;29;20261;-45
2023/01/26 05:18:40;;;;;;;433.37;221.73;;;;;;;;;;4890067;28;20708;-45
2023/01/26 05:21:06;;;;;;;422.70;215.87;;;;;;;;;;4887525;28;20402;-45
2023/01/26 05:23:32;;;;;;;486.33;257.17;;;;;;;;;;4901914;28;20271;-45
2023/01/26 05:25:58;;;;;;;488.80;243.63;;;;;;;;;;4902800;29;20717;-45
2023/01/26 05:28:25;;;;;;;483.50;247.43;;;;;;;;;;4900736;28;20247;-45
2023/01/26 05:30:51;;;;;;;481.53;244.47;;;;;;;;;;4901704;28;20296;-45
2023/01/26 05:33:21;;;;;;;482.97;254.30;;;;;;;;;;4882568;28;20312;-45
2023/01/26 05:35:51;;;;;;;424.73;216.77;;;;;;;;;;4905263;28;20301;-45
2023/01/26 05:38:17;;;;;;;437.47;221.57;;;;;;;;;;4902521;29;20371;-45
2023/01/26 05:40:43;;;;;;;412.60;209.43;;;;;;;;;;4900389;28;20988;-45
2023/01/26 05:43:11;;;;;;;438.80;222.83;;;;;;;;;;4882522;28;20307;-45
2023/01/26 05:45:38;;;;;;;466.93;236.87;;;;;;;;;;4892084;28;20323;-45
2023/01/26 05:48:04;;;;;;;505.87;256.87;;;;;;;;;;4900755;29;20303;-45
2023/01/26 05:50:31;;;;;;;439.17;223.10;;;;;;;;;;4900387;29;20176;-45
2023/01/26 05:52:59;;;;;;;429.93;212.47;;;;;;;;;;4902867;29;20173;-45
2023/01/26 05:55:25;;;;;;;425.77;218.27;;;;;;;;;;4901429;29;20231;-45
2023/01/26 05:57:51;;;;;;;452.77;227.23;;;;;;;;;;4901824;28;20227;-45
2023/01/26 06:00:20;;;;;;;437.27;220.80;;;;;;;;;;4902228;28;20235;-45
2023/01/26 06:02:47;;;;;;;418.90;212.77;;;;;;;;;;4900098;28;21352;-45
2023/01/26 06:05:13;;;;;;;454.70;236.37;;;;;;;;;;4897701;28;20233;-44
2023/01/26 06:07:39;;;;;;;416.90;209.40;;;;;;;;;;4887046;28;20287;-46
2023/01/26 06:10:05;;;;;;;485.43;252.50;;;;;;;;;;4883410;28;20261;-46
2023/01/26 06:12:34;;;;;;;461.30;228.27;;;;;;;;;;4899901;29;20685;-46
2023/01/26 06:15:03;;;;;;;486.97;246.30;;;;;;;;;;4889009;28;20354;-49
2023/01/26 06:17:29;;;;;;;431.43;216.57;;;;;;;;;;4894893;29;20188;-46
2023/01/26 06:19:55;;;;;;;428.27;218.00;;;;;;;;;;4901960;29;20743;-46
2023/01/26 06:22:22;;;;;;;487.13;255.43;;;;;;;;;;4893532;28;20267;-46
2023/01/26 06:24:48;;;;;;;451.30;241.10;;;;;;;;;;4919270;28;20212;-46
2023/01/26 06:27:15;;;;;;;463.67;237.93;;;;;;;;;;4934446;28;20248;-46
2023/01/26 06:29:41;;;;;;;442.47;229.67;;;;;;;;;;4964978;28;20572;-45
2023/01/26 06:32:10;;;;;;;431.27;219.50;;;;;;;;;;4925889;28;20229;-46
2023/01/26 06:34:36;;;;;;;467.87;239.53;;;;;;;;;;4948808;28;20227;-46
2023/01/26 06:37:02;;;;;;;516.60;267.83;;;;;;;;;;4940701;28;20224;-46
2023/01/26 06:39:28;;;;;;;470.87;246.37;;;;;;;;;;4935356;28;20618;-45
2023/01/26 06:41:55;;;;;;;490.70;248.90;;;;;;;;;;4966497;28;20325;-46
2023/01/26 06:44:21;;;;;;;465.80;243.40;;;;;;;;;;4940671;28;20690;-45
2023/01/26 06:46:47;;;;;;;456.10;229.60;;;;;;;;;;4948635;28;20291;-46
2023/01/26 06:49:15;;;;;;;448.97;225.60;;;;;;;;;;4949542;28;20535;-46
2023/01/26 06:52:08;;;;;;;492.00;258.73;;;;;;;;;;4919595;28;20330;-44
2023/01/26 06:54:34;;;;;;;450.37;237.93;;;;;;;;;;4932042;28;20314;-45
2023/01/26 06:57:00;;;;;;;471.07;250.23;;;;;;;;;;4902068;28;20220;-44
2023/01/26 06:59:26;;;;;;;493.47;227.23;;;;;;;;;;4934328;23;20278;-52
2023/01/26 07:01:52;;;;;;;497.47;232.67;;;;;;;;;;4876712;28;20228;-53
2023/01/26 07:04:18;;;;;;;549.45;255.93;;;;;;;;;;4879005;28;20880;-53
2023/01/26 07:06:45;;;;;;;488.70;226.97;;;;;;;;;;4873280;28;20322;-53
2023/01/26 07:09:11;;;;;;;559.23;268.33;;;;;;;;;;4867070;28;20717;-53
2023/01/26 07:11:37;;;;;;;556.77;256.23;;;;;;;;;;4872262;28;20267;-52
2023/01/26 07:14:03;;;;;;;599.60;298.77;;;;;;;;;;4861040;28;22204;-52
2023/01/26 07:16:29;;;;;;;548.37;249.00;;;;;;;;;;4862097;28;21190;-52
2023/01/26 07:18:55;;;;;;;566.57;271.00;;;;;;;;;;4861040;28;20225;-52
2023/01/26 07:21:22;;;;;;;573.33;272.27;;;;;;;;;;4864360;28;20228;-52
2023/01/26 07:23:49;;;;;;;547.13;264.13;;;;;;;;;;4873238;28;20420;-52
2023/01/26 07:26:16;;;;;;;592.63;270.40;;;;;;;;;;4862830;28;20223;-52
2023/01/26 07:28:42;;;;;;;625.07;304.97;;;;;;;;;;4857724;28;20953;-53
2023/01/26 07:31:08;;;;;;;595.90;284.90;;;;;;;;;;4873472;28;20634;-52
2023/01/26 07:33:34;;;;;;;525.80;242.67;;;;;;;;;;4880149;28;20581;-53
2023/01/26 07:36:01;;;;;;;487.97;223.97;;;;;;;;;;4874862;28;20227;-53
2023/01/26 07:38:28;;;;;;;532.47;245.87;;;;;;;;;;4874317;28;20184;-52
2023/01/26 07:40:54;;;;;;;554.13;265.27;;;;;;;;;;4873124;28;21399;-52
2023/01/26 07:43:20;;;;;;;627.83;323.20;;;;;;;;;;4847399;28;21382;-52
2023/01/26 07:45:50;;;;;;;484.17;216.03;;;;;;;;;;4864600;28;20484;-52
2023/01/26 07:48:16;;;;;;;571.03;286.97;;;;;;;;;;4871344;28;20683;-52
2023/01/26 07:50:44;;;;;;;470.10;214.10;;;;;;;;;;4862173;28;20418;-52
2023/01/26 07:53:11;;;;;;;567.83;263.80;;;;;;;;;;4875786;28;20184;-52
2023/01/26 07:55:38;;;;;;;600.83;280.80;;;;;;;;;;4852895;28;20228;-52
2023/01/26 07:58:04;;;;;;;543.97;242.00;;;;;;;;;;4867837;28;20591;-53
2023/01/26 08:00:30;;;;;;;498.80;222.10;;;;;;;;;;4885754;28;20747;-52
2023/01/26 08:02:56;;;;;;;498.77;237.60;;;;;;;;;;4885044;28;21185;-53
2023/01/26 08:05:22;;;;;;;483.87;222.20;;;;;;;;;;4897032;28;20220;-52
2023/01/26 08:07:48;;;;;;;481.43;220.37;;;;;;;;;;4877919;28;25160;-53
2023/01/26 08:10:14;;;;;;;513.30;232.07;;;;;;;;;;4891142;28;20236;-52
2023/01/26 08:12:40;;;;;;;498.37;229.40;;;;;;;;;;4889732;28;20215;-52
2023/01/26 08:15:06;;;;;;;486.40;222.67;;;;;;;;;;4872019;28;20223;-52
2023/01/26 08:17:32;;;;;;;508.10;234.40;;;;;;;;;;4892960;28;20199;-52
2023/01/26 08:19:59;;;;;;;495.53;224.87;;;;;;;;;;4895556;28;20631;-52
2023/01/26 08:22:25;;;;;;;511.50;241.37;;;;;;;;;;4895398;28;20247;-52
2023/01/26 08:24:51;;;;;;;555.77;258.53;;;;;;;;;;4878217;28;20366;-52
2023/01/26 08:27:17;;;;;;;470.40;214.90;;;;;;;;;;4864068;28;20244;-52
2023/01/26 08:29:43;;;;;;;540.23;244.73;;;;;;;;;;4857192;28;20208;-52
2023/01/26 08:32:09;;;;;;;560.20;256.43;;;;;;;;;;4863789;28;20516;-52
2023/01/26 08:34:35;;;;;;;584.27;264.63;;;;;;;;;;4861332;28;20231;-52
2023/01/26 08:37:02;;;;;;;565.27;266.43;;;;;;;;;;4864896;28;20212;-53
2023/01/26 08:39:28;;;;;;;686.50;325.23;;;;;;;;;;4844072;28;20224;-52
2023/01/26 08:41:55;;;;;;;597.47;280.43;;;;;;;;;;4846882;28;20699;-52
2023/01/26 08:44:21;;;;;;;538.23;248.00;;;;;;;;;;4858082;28;20267;-52
2023/01/26 08:46:47;;;;;;;608.50;281.13;;;;;;;;;;4861075;28;21330;-53
2023/01/26 08:49:13;;;;;;;590.30;263.50;;;;;;;;;;4856387;28;20781;-52
2023/01/26 08:51:39;;;;;;;599.87;269.87;;;;;;;;;;4849996;28;20593;-53
2023/01/26 08:54:07;;;;;;;564.57;253.63;;;;;;;;;;4859714;28;20224;-52
2023/01/26 08:56:33;;;;;;;623.50;288.40;;;;;;;;;;4864963;28;20200;-53
2023/01/26 08:58:59;;;;;;;712.47;323.87;;;;;;;;;;4862977;28;20224;-52
2023/01/26 09:01:25;;;;;;;497.50;220.97;;;;;;;;;;4888110;28;20224;-53
2023/01/26 09:03:52;;;;;;;542.57;242.67;;;;;;;;;;4892348;28;20323;-52
2023/01/26 09:06:18;;;;;;;576.27;262.40;;;;;;;;;;4870025;28;20258;-52
2023/01/26 09:08:45;;;;;;;540.53;249.23;;;;;;;;;;4867812;28;20211;-52
2023/01/26 09:11:11;;;;;;;671.57;325.27;;;;;;;;;;4849668;28;20189;-52
2023/01/26 09:13:38;;;;;;;492.57;221.27;;;;;;;;;;4862428;28;20221;-52
2023/01/26 09:16:07;;;;;;;590.00;268.73;;;;;;;;;;4874487;28;20343;-56
2023/01/26 09:18:34;;;;;;;542.83;252.67;;;;;;;;;;4866602;28;20351;-52
2023/01/26 09:21:04;;;;;;;561.63;262.67;;;;;;;;;;4883412;28;21426;-52
2023/01/26 09:23:32;;;;;;;579.93;280.70;;;;;;;;;;4868852;28;20871;-52
2023/01/26 09:25:58;;;;;;;565.23;268.70;;;;;;;;;;4871457;28;20269;-52
2023/01/26 09:28:24;;;;;;;562.67;261.70;;;;;;;;;;4867731;28;20234;-52
2023/01/26 09:30:50;;;;;;;573.50;258.83;;;;;;;;;;4877180;28;20787;-52
2023/01/26 09:33:16;;;;;;;559.17;251.03;;;;;;;;;;4873624;28;20268;-52
2023/01/26 09:35:42;;;;;;;543.90;248.57;;;;;;;;;;4883075;28;20193;-52
2023/01/26 09:38:08;;;;;;;572.13;257.90;;;;;;;;;;4882898;28;20279;-52
2023/01/26 09:40:37;;;;;;;529.07;235.90;;;;;;;;;;4886065;28;21850;-52
2023/01/26 09:43:06;;;;;;;524.67;232.33;;;;;;;;;;4886909;28;20319;-52
2023/01/26 09:45:35;;;;;;;512.10;231.90;;;;;;;;;;4896230;28;20809;-52
2023/01/26 09:48:07;;;;;;;581.97;263.30;;;;;;;;;;4866969;28;20328;-51
2023/01/26 09:50:37;;;;;;;563.53;258.77;;;;;;;;;;4886883;28;20220;-51
2023/01/26 09:53:07;;;;;;;524.67;237.97;;;;;;;;;;4876015;28;20235;-51
2023/01/26 09:55:33;;;;;;;567.50;263.00;;;;;;;;;;4881861;28;20224;-52
2023/01/26 09:58:07;;;;;;;483.80;217.90;;;;;;;;;;4888532;28;20221;-54
2023/01/26 10:00:39;;;;;;;510.80;230.93;;;;;;;;;;4886529;28;20327;-53
2023/01/26 10:03:05;;;;;;;493.07;224.90;;;;;;;;;;4896171;28;20226;-54
2023/01/26 10:05:46;;;;;;;485.07;220.93;;;;;;;;;;4893358;28;20192;-54
2023/01/26 10:08:14;;;;;;;511.07;229.00;;;;;;;;;;4895096;28;20250;-53
2023/01/26 10:10:49;;;;;;;565.13;256.27;;;;;;;;;;4884792;28;20297;-53
2023/01/26 10:13:16;;;;;;;546.93;249.67;;;;;;;;;;4868752;28;20711;-54
2023/01/26 10:15:44;;;;;;;516.93;238.60;;;;;;;;;;4884191;28;20236;-54
2023/01/26 10:18:17;;;;;;;557.63;262.50;;;;;;;;;;4886675;28;21030;-53
2023/01/26 10:20:47;;;;;;;518.63;235.33;;;;;;;;;;4887853;28;20486;-54
2023/01/26 10:23:24;;;;;;;528.60;250.43;;;;;;;;;;4888074;28;20271;-54
2023/01/26 10:25:53;;;;;;;481.70;222.27;;;;;;;;;;4888809;28;20273;-52
2023/01/26 10:28:26;;;;;;;559.20;258.43;;;;;;;;;;4889988;28;20213;-53
2023/01/26 10:30:52;;;;;;;588.37;283.93;;;;;;;;;;4869848;28;20315;-52
2023/01/26 10:33:31;;;;;;;517.50;242.57;;;;;;;;;;4882087;28;20650;-52
2023/01/26 10:35:57;;;;;;;527.07;253.10;;;;;;;;;;4890559;28;20219;-52
2023/01/26 10:38:33;;;;;;;502.20;237.17;;;;;;;;;;4889284;28;20334;-52
2023/01/26 10:41:00;;;;;;;548.47;272.97;;;;;;;;;;4865441;28;20227;-52
2023/01/26 10:43:27;;;;;;;568.67;281.67;;;;;;;;;;4869503;28;20533;-52
2023/01/26 10:45:53;;;;;;;539.90;263.03;;;;;;;;;;4883770;28;20223;-52
2023/01/26 10:48:23;;;;;;;533.73;257.27;;;;;;;;;;4885867;28;20239;-52
2023/01/26 10:50:49;;;;;;;503.40;236.03;;;;;;;;;;4875416;28;20640;-52
2023/01/26 10:53:18;;;;;;;495.47;238.87;;;;;;;;;;4871255;28;20226;-52
2023/01/26 10:55:57;;;;;;;575.10;283.10;;;;;;;;;;4863449;28;20621;-53
2023/01/26 10:58:49;;;;;;;545.97;261.93;;;;;;;;;;4864744;28;20279;-52
2023/01/26 11:01:17;;;;;;;596.20;279.97;;;;;;;;;;4873751;28;20216;-53
2023/01/26 11:04:03;;;;;;;534.67;265.20;;;;;;;;;;4881482;28;20226;-52
2023/01/26 11:06:30;;;;;;;518.33;255.47;;;;;;;;;;4872066;28;20220;-52
2023/01/26 11:09:08;;;;;;;459.73;210.73;;;;;;;;;;4879691;28;20300;-53
2023/01/26 11:11:34;;;;;;;476.93;216.97;;;;;;;;;;4887000;28;20299;-52
2023/01/26 11:14:16;;;;;;;518.60;258.27;;;;;;;;;;4871231;28;20910;-52
2023/01/26 11:16:47;;;;;;;531.27;259.10;;;;;;;;;;4866869;28;20219;-52
2023/01/26 11:19:14;;;;;;;520.30;249.17;;;;;;;;;;4868364;28;20615;-52
2023/01/26 11:21:51;;;;;;;552.57;269.33;;;;;;;;;;4866644;28;20629;-52
2023/01/26 11:24:20;;;;;;;539.87;265.93;;;;;;;;;;4866340;28;20238;-52
2023/01/26 11:27:07;;;;;;;478.03;237.93;;;;;;;;;;4877203;28;20224;-52
2023/01/26 11:29:43;;;;;;;493.43;234.90;;;;;;;;;;4866140;28;20220;-52
2023/01/26 11:32:21;;;;;;;535.17;256.87;;;;;;;;;;4874090;28;20232;-52
2023/01/26 11:34:59;;;;;;;476.97;228.87;;;;;;;;;;4873301;28;20228;-52
2023/01/26 11:37:44;;;;;;;503.43;248.43;;;;;;;;;;4871599;28;20286;-52
2023/01/26 11:40:10;;;;;;;478.23;228.77;;;;;;;;;;4881749;28;20498;-52
2023/01/26 11:42:43;;;;;;;484.00;237.37;;;;;;;;;;4875569;28;20922;-53
2023/01/26 11:45:18;;;;;;;472.80;223.73;;;;;;;;;;4876159;28;20946;-52
2023/01/26 11:48:03;;;;;;;567.63;287.70;;;;;;;;;;4857944;28;20599;-52
2023/01/26 11:50:43;;;;;;;530.50;259.90;;;;;;;;;;4875983;28;20679;-52
2023/01/26 11:53:29;;;;;;;498.47;241.77;;;;;;;;;;4879116;28;20199;-52
2023/01/26 11:56:14;;;;;;;536.53;263.83;;;;;;;;;;4871612;28;20674;-52
2023/01/26 11:58:40;;;;;;;539.33;267.87;;;;;;;;;;4864180;28;20239;-54
2023/01/26 12:01:09;;;;;;;527.63;261.27;;;;;;;;;;4872923;28;20236;-52
2023/01/26 12:03:42;;;;;;;521.33;261.27;;;;;;;;;;4877353;28;20732;-52
2023/01/26 12:06:15;;;;;;;543.77;276.43;;;;;;;;;;4870264;28;20774;-53
2023/01/26 12:08:44;;;;;;;567.40;293.73;;;;;;;;;;4868889;28;20212;-52
2023/01/26 12:11:24;;;;;;;531.60;270.50;;;;;;;;;;4875283;28;20643;-51
2023/01/26 12:14:02;;;;;;;512.90;261.70;;;;;;;;;;4874544;28;20298;-51
2023/01/26 12:16:43;;;;;;;523.97;270.13;;;;;;;;;;4861101;28;20555;-52
2023/01/26 12:19:21;;;;;;;523.27;274.23;;;;;;;;;;4870402;28;20330;-51
2023/01/26 12:21:50;;;;;;;457.93;232.10;;;;;;;;;;4874582;28;20370;-51
2023/01/26 12:24:21;;;;;;;468.67;235.73;;;;;;;;;;4889342;28;20759;-51
2023/01/26 12:26:50;;;;;;;477.23;238.10;;;;;;;;;;4878693;28;20308;-51
2023/01/26 12:29:22;;;;;;;527.23;272.53;;;;;;;;;;4875739;28;20752;-51
2023/01/26 12:31:55;;;;;;;542.77;274.37;;;;;;;;;;4872993;28;20258;-52
2023/01/26 12:34:25;;;;;;;500.40;244.13;;;;;;;;;;4882050;28;20224;-52
2023/01/26 12:37:00;;;;;;;494.63;247.67;;;;;;;;;;4881119;28;20540;-51
2023/01/26 12:39:29;;;;;;;502.47;248.63;;;;;;;;;;4885470;28;20277;-52
2023/01/26 12:42:02;;;;;;;496.87;243.80;;;;;;;;;;4892795;28;20231;-52
2023/01/26 12:44:32;;;;;;;498.03;243.20;;;;;;;;;;4880145;28;20185;-51
2023/01/26 12:47:19;;;;;;;537.40;267.73;;;;;;;;;;4882351;28;20236;-53
2023/01/26 12:49:52;;;;;;;574.87;300.80;;;;;;;;;;4865231;28;20233;-51
2023/01/26 12:52:36;;;;;;;522.33;262.13;;;;;;;;;;4880084;28;20271;-52
2023/01/26 12:55:03;;;;;;;524.87;268.90;;;;;;;;;;4879987;28;20231;-51
2023/01/26 12:57:33;;;;;;;472.33;228.73;;;;;;;;;;4865501;28;20571;-52
2023/01/26 13:00:19;;;;;;;505.03;252.97;;;;;;;;;;4933074;23;20226;-52
2023/01/26 13:02:49;;;;;;;491.30;242.67;;;;;;;;;;4982574;28;20743;-52
2023/01/26 13:05:38;;;;;;;470.03;235.47;;;;;;;;;;4994382;28;20272;-52
2023/01/26 13:08:28;;;;;;;561.60;290.93;;;;;;;;;;4976405;28;20238;-51
2023/01/26 13:10:54;;;;;;;483.33;246.40;;;;;;;;;;4979707;28;20211;-51
2023/01/26 13:13:20;;;;;;;533.33;267.70;;;;;;;;;;4996074;28;20717;-51
2023/01/26 13:16:06;;;;;;;492.47;244.77;;;;;;;;;;4969785;28;20291;-51
2023/01/26 13:18:48;;;;;;;383.97;191.93;;;;;;;;;;4967095;28;20529;-51
2023/01/26 13:21:26;;;;;;;326.23;160.13;;;;;;;;;;5002399;28;20226;-51
2023/01/26 13:23:52;;;;;;;274.77;129.73;;;;;;;;;;5005254;28;20233;-51
2023/01/26 13:26:24;;;;;;;308.70;149.17;;;;;;;;;;4998977;28;20209;-51
2023/01/26 13:28:51;;;;;;;266.83;125.90;;;;;;;;;;4988055;28;20568;-51
2023/01/26 13:31:31;;;;;;;297.37;144.83;;;;;;;;;;5001608;28;20215;-52
2023/01/26 13:33:59;;;;;;;276.17;132.90;;;;;;;;;;4992208;28;20214;-51
2023/01/26 13:36:27;;;;;;;295.70;140.63;;;;;;;;;;5014663;28;20573;-51
2023/01/26 13:38:59;;;;;;;303.87;145.80;;;;;;;;;;5008861;28;20506;-51
2023/01/26 13:41:25;;;;;;;260.63;122.40;;;;;;;;;;5001952;28;20186;-51
2023/01/26 13:43:58;;;;;;;484.17;237.70;;;;;;;;;;5002310;28;20218;-51
2023/01/26 13:46:34;;;;;;;514.10;253.93;;;;;;;;;;4986484;28;20842;-52
2023/01/26 13:49:01;;;;;;;490.00;237.87;;;;;;;;;;4969359;28;20542;-51
2023/01/26 13:51:36;;;;;;;491.43;232.20;;;;;;;;;;4993741;28;20476;-51
2023/01/26 13:54:02;;;;;;;506.87;245.97;;;;;;;;;;5001142;28;20367;-51
2023/01/26 13:56:31;;;;;;;508.23;246.77;;;;;;;;;;4978200;28;20239;-52
2023/01/26 13:59:05;;;;;;;489.20;240.47;;;;;;;;;;4963031;28;20208;-51
2023/01/26 14:01:32;;;;;;;470.33;228.03;;;;;;;;;;4986264;28;20732;-52
2023/01/26 14:04:12;;;;;;;455.33;222.70;;;;;;;;;;4955052;28;20214;-51
2023/01/26 14:06:38;;;;;;;486.70;238.63;;;;;;;;;;4956596;28;23375;-52
2023/01/26 14:09:05;;;;;;;455.57;229.63;;;;;;;;;;4957818;28;21852;-56
2023/01/26 14:11:36;;;;;;;476.70;235.80;;;;;;;;;;4959212;28;20185;-52
2023/01/26 14:14:02;;;;;;;523.43;260.20;;;;;;;;;;4961175;28;20687;-52
2023/01/26 14:16:34;;;;;;;532.07;272.83;;;;;;;;;;4964285;28;20305;-56
2023/01/26 14:19:10;;;;;;;496.50;247.43;;;;;;;;;;4999446;28;20241;-52
2023/01/26 14:21:45;;;;;;;525.87;272.93;;;;;;;;;;4996580;28;20311;-52
2023/01/26 14:24:11;;;;;;;505.67;258.40;;;;;;;;;;4970673;28;20301;-52
2023/01/26 14:26:38;;;;;;;475.27;236.23;;;;;;;;;;4967645;28;20261;-53
2023/01/26 14:29:12;;;;;;;467.57;229.03;;;;;;;;;;4953450;28;20206;-52
2023/01/26 14:31:39;;;;;;;510.33;257.40;;;;;;;;;;4963764;28;20233;-53
2023/01/26 14:34:09;;;;;;;507.50;251.97;;;;;;;;;;4954458;28;20605;-52
2023/01/26 14:36:38;;;;;;;510.93;254.20;;;;;;;;;;4960593;28;20310;-55
2023/01/26 14:39:14;;;;;;;530.80;267.97;;;;;;;;;;4952265;28;20286;-52
2023/01/26 14:41:43;;;;;;;481.63;235.67;;;;;;;;;;4966569;28;20230;-52
2023/01/26 14:44:13;;;;;;;527.10;261.67;;;;;;;;;;4947825;28;20197;-52
2023/01/26 14:46:56;;;;;;;499.50;251.17;;;;;;;;;;4975562;28;20245;-52
2023/01/26 14:49:41;;;;;;;468.37;223.93;;;;;;;;;;4974029;28;20241;-52